sensor_id;sensor_type;location;lat;lon;timestamp;pressure;altitude;pressure_sealevel;temperature;humidity
77706;BME280;66874;45.274;5.880;2024-03-23T00:55:51;98851.50;;;10.85;58.16
77706;BME280;66874;45.274;5.880;2024-03-23T00:58:17;98851.50;;;10.83;58.34
77706;BME280;66874;45.274;5.880;2024-03-23T01:00:42;98845.44;;;10.83;58.53
77706;BME280;66874;45.274;5.880;2024-03-23T01:03:08;98845.44;;;10.83;58.62
77706;BME280;66874;45.274;5.880;2024-03-23T01:05:33;98840.31;;;10.78;58.60
77706;BME280;66874;45.274;5.880;2024-03-23T01:07:58;98836.84;;;10.78;58.61
77706;BME280;66874;45.274;5.880;2024-03-23T01:10:24;98839.50;;;10.74;58.80
77706;BME280;66874;45.274;5.880;2024-03-23T01:12:49;98843.03;;;10.73;58.61
77706;BME280;66874;45.274;5.880;2024-03-23T01:15:15;98856.13;;;10.73;58.66
77706;BME280;66874;45.274;5.880;2024-03-23T01:17:40;98863.13;;;10.73;58.87
77706;BME280;66874;45.274;5.880;2024-03-23T01:20:06;98854.47;;;10.69;58.95
77706;BME280;66874;45.274;5.880;2024-03-23T01:22:31;98861.69;;;10.58;59.05
77706;BME280;66874;45.274;5.880;2024-03-23T01:24:58;98865.56;;;10.42;59.56
77706;BME280;66874;45.274;5.880;2024-03-23T01:27:23;98857.94;;;10.30;59.98
77706;BME280;66874;45.274;5.880;2024-03-23T01:29:48;98856.34;;;10.22;60.34
77706;BME280;66874;45.274;5.880;2024-03-23T01:32:14;98855.66;;;10.13;60.72
77706;BME280;66874;45.274;5.880;2024-03-23T01:34:39;98857.38;;;10.14;61.29
77706;BME280;66874;45.274;5.880;2024-03-23T01:37:04;98859.78;;;10.24;60.86
77706;BME280;66874;45.274;5.880;2024-03-23T01:39:30;98862.38;;;10.24;61.25
77706;BME280;66874;45.274;5.880;2024-03-23T01:41:55;98858.06;;;10.22;61.07
77706;BME280;66874;45.274;5.880;2024-03-23T01:44:21;98862.44;;;10.21;61.11
77706;BME280;66874;45.274;5.880;2024-03-23T01:46:46;98861.63;;;10.19;61.14
77706;BME280;66874;45.274;5.880;2024-03-23T01:49:12;98866.03;;;10.17;61.15
77706;BME280;66874;45.274;5.880;2024-03-23T01:51:38;98866.03;;;10.17;61.06
77706;BME280;66874;45.274;5.880;2024-03-23T01:54:04;98864.25;;;10.18;61.06
77706;BME280;66874;45.274;5.880;2024-03-23T01:56:34;98864.19;;;10.22;61.02
77706;BME280;66874;45.274;5.880;2024-03-23T01:59:09;98867.53;;;10.31;61.16
77706;BME280;66874;45.274;5.880;2024-03-23T02:01:35;98871.06;;;10.28;60.97
77706;BME280;66874;45.274;5.880;2024-03-23T02:04:04;98870.22;;;10.26;61.20
77706;BME280;66874;45.274;5.880;2024-03-23T02:06:29;98861.53;;;10.25;61.22
77706;BME280;66874;45.274;5.880;2024-03-23T02:08:55;98860.00;;;10.14;61.48
77706;BME280;66874;45.274;5.880;2024-03-23T02:11:20;98866.06;;;10.14;61.81
77706;BME280;66874;45.274;5.880;2024-03-23T02:13:46;98860.78;;;10.19;61.59
77706;BME280;66874;45.274;5.880;2024-03-23T02:16:11;98865.00;;;10.26;61.48
77706;BME280;66874;45.274;5.880;2024-03-23T02:18:38;98864.06;;;10.30;61.64
77706;BME280;66874;45.274;5.880;2024-03-23T02:21:04;98871.13;;;10.25;61.65
77706;BME280;66874;45.274;5.880;2024-03-23T02:23:29;98866.06;;;10.14;62.15
77706;BME280;66874;45.274;5.880;2024-03-23T02:25:55;98866.19;;;10.10;62.36
77706;BME280;66874;45.274;5.880;2024-03-23T02:28:20;98866.22;;;10.08;62.52
77706;BME280;66874;45.274;5.880;2024-03-23T02:30:47;98870.59;;;10.08;62.71
77706;BME280;66874;45.274;5.880;2024-03-23T02:33:13;98874.06;;;10.07;62.56
77706;BME280;66874;45.274;5.880;2024-03-23T02:35:38;98876.69;;;10.07;62.68
77706;BME280;66874;45.274;5.880;2024-03-23T02:38:03;98878.38;;;10.09;62.81
77706;BME280;66874;45.274;5.880;2024-03-23T02:40:29;98877.56;;;10.07;62.80
77706;BME280;66874;45.274;5.880;2024-03-23T02:42:55;98879.31;;;10.07;62.98
77706;BME280;66874;45.274;5.880;2024-03-23T02:45:20;98875.78;;;10.09;63.07
77706;BME280;66874;45.274;5.880;2024-03-23T02:47:45;98884.47;;;10.11;63.06
77706;BME280;66874;45.274;5.880;2024-03-23T02:50:11;98873.97;;;10.13;63.39
77706;BME280;66874;45.274;5.880;2024-03-23T02:52:36;98864.34;;;10.15;63.18
77706;BME280;66874;45.274;5.880;2024-03-23T02:55:03;98867.81;;;10.15;63.25
77706;BME280;66874;45.274;5.880;2024-03-23T02:57:28;98869.53;;;10.16;63.25
77706;BME280;66874;45.274;5.880;2024-03-23T02:59:54;98871.25;;;10.17;63.45
77706;BME280;66874;45.274;5.880;2024-03-23T03:02:20;98867.69;;;10.21;63.10
77706;BME280;66874;45.274;5.880;2024-03-23T03:04:46;98863.28;;;10.25;63.34
77706;BME280;66874;45.274;5.880;2024-03-23T03:07:11;98868.44;;;10.28;63.40
77706;BME280;66874;45.274;5.880;2024-03-23T03:09:37;98866.63;;;10.32;63.23
77706;BME280;66874;45.274;5.880;2024-03-23T03:12:07;98862.16;;;10.37;63.17
77706;BME280;66874;45.274;5.880;2024-03-23T03:14:33;98857.72;;;10.42;63.36
77706;BME280;66874;45.274;5.880;2024-03-23T03:16:58;98868.97;;;10.44;63.41
77706;BME280;66874;45.274;5.880;2024-03-23T03:19:24;98862.94;;;10.42;63.38
77706;BME280;66874;45.274;5.880;2024-03-23T03:21:49;98873.28;;;10.46;63.59
77706;BME280;66874;45.274;5.880;2024-03-23T03:24:14;98877.56;;;10.49;63.49
77706;BME280;66874;45.274;5.880;2024-03-23T03:26:40;98880.22;;;10.47;63.61
77706;BME280;66874;45.274;5.880;2024-03-23T03:29:05;98860.31;;;10.42;63.88
77706;BME280;66874;45.274;5.880;2024-03-23T03:31:31;98855.09;;;10.42;63.70
77706;BME280;66874;45.274;5.880;2024-03-23T03:33:56;98849.94;;;10.39;63.90
77706;BME280;66874;45.274;5.880;2024-03-23T03:36:21;98853.50;;;10.33;64.13
77706;BME280;66874;45.274;5.880;2024-03-23T03:38:47;98857.88;;;10.34;64.20
77706;BME280;66874;45.274;5.880;2024-03-23T03:41:12;98855.09;;;10.40;64.11
77706;BME280;66874;45.274;5.880;2024-03-23T03:43:37;98856.81;;;10.43;64.03
77706;BME280;66874;45.274;5.880;2024-03-23T03:46:03;98854.94;;;10.49;63.89
77706;BME280;66874;45.274;5.880;2024-03-23T03:48:29;98835.53;;;10.58;63.73
77706;BME280;66874;45.274;5.880;2024-03-23T03:50:55;98823.22;;;10.63;63.78
77706;BME280;66874;45.274;5.880;2024-03-23T03:53:20;98830.16;;;10.64;63.72
77706;BME280;66874;45.274;5.880;2024-03-23T03:55:46;98838.91;;;10.63;63.80
77706;BME280;66874;45.274;5.880;2024-03-23T03:58:12;98826.72;;;10.62;63.98
77706;BME280;66874;45.274;5.880;2024-03-23T04:00:37;98811.03;;;10.62;64.05
77706;BME280;66874;45.274;5.880;2024-03-23T04:03:03;98811.94;;;10.61;64.36
77706;BME280;66874;45.274;5.880;2024-03-23T04:05:28;98800.53;;;10.64;64.31
77706;BME280;66874;45.274;5.880;2024-03-23T04:07:53;98801.31;;;10.67;64.32
77706;BME280;66874;45.274;5.880;2024-03-23T04:10:19;98796.06;;;10.69;64.46
77706;BME280;66874;45.274;5.880;2024-03-23T04:12:45;98795.16;;;10.68;64.42
77706;BME280;66874;45.274;5.880;2024-03-23T04:15:11;98782.31;;;10.59;64.76
77706;BME280;66874;45.274;5.880;2024-03-23T04:17:37;98775.50;;;10.54;64.93
77706;BME280;66874;45.274;5.880;2024-03-23T04:20:03;98778.13;;;10.52;65.04
77706;BME280;66874;45.274;5.880;2024-03-23T04:22:34;98765.81;;;10.57;64.59
77706;BME280;66874;45.274;5.880;2024-03-23T04:25:00;98756.16;;;10.59;64.67
77706;BME280;66874;45.274;5.880;2024-03-23T04:27:25;98749.34;;;10.54;65.12
77706;BME280;66874;45.274;5.880;2024-03-23T04:29:52;98751.06;;;10.53;65.39
77706;BME280;66874;45.274;5.880;2024-03-23T04:32:18;98753.00;;;10.46;65.54
77706;BME280;66874;45.274;5.880;2024-03-23T04:34:44;98766.19;;;10.42;65.61
77706;BME280;66874;45.274;5.880;2024-03-23T04:37:10;98773.25;;;10.38;65.97
77706;BME280;66874;45.274;5.880;2024-03-23T04:39:36;98752.34;;;10.37;66.11
77706;BME280;66874;45.274;5.880;2024-03-23T04:42:02;98724.41;;;10.39;66.30
77706;BME280;66874;45.274;5.880;2024-03-23T04:44:28;98730.31;;;10.47;67.03
77706;BME280;66874;45.274;5.880;2024-03-23T04:46:53;98758.91;;;10.55;67.45
77706;BME280;66874;45.274;5.880;2024-03-23T04:49:19;98772.09;;;10.50;68.70
77706;BME280;66874;45.274;5.880;2024-03-23T04:51:44;98761.94;;;10.38;69.71
77706;BME280;66874;45.274;5.880;2024-03-23T04:54:14;98771.66;;;10.31;69.91
77706;BME280;66874;45.274;5.880;2024-03-23T04:56:39;98780.56;;;10.21;69.78
77706;BME280;66874;45.274;5.880;2024-03-23T04:59:05;98801.78;;;10.07;69.64
77706;BME280;66874;45.274;5.880;2024-03-23T05:01:33;98799.34;;;9.99;69.64
77706;BME280;66874;45.274;5.880;2024-03-23T05:03:58;98811.50;;;9.99;69.61
77706;BME280;66874;45.274;5.880;2024-03-23T05:06:25;98799.34;;;9.99;70.92
77706;BME280;66874;45.274;5.880;2024-03-23T05:08:54;98800.88;;;10.08;69.52
77706;BME280;66874;45.274;5.880;2024-03-23T05:11:19;98809.47;;;10.15;68.92
77706;BME280;66874;45.274;5.880;2024-03-23T05:13:45;98805.03;;;10.17;68.52
77706;BME280;66874;45.274;5.880;2024-03-23T05:16:11;98792.81;;;10.17;68.46
77706;BME280;66874;45.274;5.880;2024-03-23T05:18:37;98793.63;;;10.22;68.24
77706;BME280;66874;45.274;5.880;2024-03-23T05:21:02;98796.03;;;10.32;67.59
77706;BME280;66874;45.274;5.880;2024-03-23T05:23:28;98822.13;;;10.35;67.97
77706;BME280;66874;45.274;5.880;2024-03-23T05:25:55;98816.16;;;10.28;68.03
77706;BME280;66874;45.274;5.880;2024-03-23T05:28:21;98806.63;;;10.24;68.38
77706;BME280;66874;45.274;5.880;2024-03-23T05:30:53;98812.81;;;10.20;68.95
77706;BME280;66874;45.274;5.880;2024-03-23T05:33:20;98822.44;;;10.18;68.84
77706;BME280;66874;45.274;5.880;2024-03-23T05:35:46;98824.25;;;10.16;69.10
77706;BME280;66874;45.274;5.880;2024-03-23T05:38:15;98813.00;;;10.12;69.46
77706;BME280;66874;45.274;5.880;2024-03-23T05:40:40;98814.75;;;10.12;69.72
77706;BME280;66874;45.274;5.880;2024-03-23T05:43:06;98813.00;;;10.11;69.93
77706;BME280;66874;45.274;5.880;2024-03-23T05:45:32;98840.91;;;10.10;70.39
77706;BME280;66874;45.274;5.880;2024-03-23T05:47:57;98850.44;;;10.13;71.01
77706;BME280;66874;45.274;5.880;2024-03-23T05:50:23;98853.06;;;10.13;71.21
77706;BME280;66874;45.274;5.880;2024-03-23T05:52:49;98860.03;;;10.11;71.70
77706;BME280;66874;45.274;5.880;2024-03-23T05:55:15;98859.19;;;10.10;71.77
77706;BME280;66874;45.274;5.880;2024-03-23T05:57:40;98878.38;;;10.09;71.97
77706;BME280;66874;45.274;5.880;2024-03-23T06:00:06;98877.56;;;10.07;72.35
77706;BME280;66874;45.274;5.880;2024-03-23T06:02:40;98882.91;;;10.01;72.48
77706;BME280;66874;45.274;5.880;2024-03-23T06:05:06;98896.03;;;9.98;72.63
77706;BME280;66874;45.274;5.880;2024-03-23T06:07:32;98892.63;;;9.94;72.97
77706;BME280;66874;45.274;5.880;2024-03-23T06:09:59;98896.16;;;9.92;72.86
77706;BME280;66874;45.274;5.880;2024-03-23T06:12:24;98896.19;;;9.90;73.12
77706;BME280;66874;45.274;5.880;2024-03-23T06:14:49;98899.63;;;9.92;73.10
77706;BME280;66874;45.274;5.880;2024-03-23T06:17:15;98901.34;;;9.93;73.03
77706;BME280;66874;45.274;5.880;2024-03-23T06:19:41;98918.75;;;9.94;73.26
77706;BME280;66874;45.274;5.880;2024-03-23T06:22:06;98909.13;;;9.96;73.15
77706;BME280;66874;45.274;5.880;2024-03-23T06:24:32;98922.97;;;10.01;73.35
77706;BME280;66874;45.274;5.880;2024-03-23T06:26:57;98934.28;;;10.02;73.40
77706;BME280;66874;45.274;5.880;2024-03-23T06:29:22;98947.41;;;9.99;73.24
77706;BME280;66874;45.274;5.880;2024-03-23T06:31:54;98942.13;;;10.02;73.63
77706;BME280;66874;45.274;5.880;2024-03-23T06:34:20;98949.88;;;10.07;73.47
77706;BME280;66874;45.274;5.880;2024-03-23T06:36:47;98955.03;;;10.11;73.46
77706;BME280;66874;45.274;5.880;2024-03-23T06:39:12;98942.69;;;10.18;73.48
77706;BME280;66874;45.274;5.880;2024-03-23T06:41:40;98943.47;;;10.21;73.40
77706;BME280;66874;45.274;5.880;2024-03-23T06:44:06;98952.28;;;10.19;73.33
77706;BME280;66874;45.274;5.880;2024-03-23T06:46:31;98945.28;;;10.18;73.27
77706;BME280;66874;45.274;5.880;2024-03-23T06:48:57;98947.91;;;10.19;73.31
77706;BME280;66874;45.274;5.880;2024-03-23T06:51:22;98938.25;;;10.23;73.58
77706;BME280;66874;45.274;5.880;2024-03-23T06:53:49;98937.38;;;10.22;73.64
77706;BME280;66874;45.274;5.880;2024-03-23T06:56:15;98948.66;;;10.26;73.57
77706;BME280;66874;45.274;5.880;2024-03-23T06:58:40;98957.28;;;10.31;73.56
77706;BME280;66874;45.274;5.880;2024-03-23T07:01:05;98958.84;;;10.40;73.71
77706;BME280;66874;45.274;5.880;2024-03-23T07:03:32;98967.28;;;10.52;73.91
77706;BME280;66874;45.274;5.880;2024-03-23T07:05:58;98971.34;;;10.67;73.56
77706;BME280;66874;45.274;5.880;2024-03-23T07:08:23;98979.72;;;10.85;73.72
77706;BME280;66874;45.274;5.880;2024-03-23T07:10:49;98982.00;;;10.98;73.42
77706;BME280;66874;45.274;5.880;2024-03-23T07:13:14;98988.66;;;11.13;73.39
77706;BME280;66874;45.274;5.880;2024-03-23T07:15:40;99010.25;;;11.24;72.81
77706;BME280;66874;45.274;5.880;2024-03-23T07:18:05;99007.50;;;11.31;72.70
77706;BME280;66874;45.274;5.880;2024-03-23T07:20:30;99030.03;;;11.38;72.74
77706;BME280;66874;45.274;5.880;2024-03-23T07:22:56;99009.81;;;11.43;73.07
77706;BME280;66874;45.274;5.880;2024-03-23T07:25:22;99022.81;;;11.47;72.87
77706;BME280;66874;45.274;5.880;2024-03-23T07:27:48;99021.03;;;11.49;72.91
77706;BME280;66874;45.274;5.880;2024-03-23T07:30:14;99028.00;;;11.49;72.74
77706;BME280;66874;45.274;5.880;2024-03-23T07:32:39;99036.75;;;11.48;72.48
77706;BME280;66874;45.274;5.880;2024-03-23T07:35:05;99044.56;;;11.51;72.56
77706;BME280;66874;45.274;5.880;2024-03-23T07:37:30;99037.72;;;11.45;72.58
77706;BME280;66874;45.274;5.880;2024-03-23T07:39:56;99043.88;;;11.43;72.58
77706;BME280;66874;45.274;5.880;2024-03-23T07:42:22;99038.66;;;11.41;72.65
77706;BME280;66874;45.274;5.880;2024-03-23T07:44:48;99034.19;;;11.46;72.55
77706;BME280;66874;45.274;5.880;2024-03-23T07:47:14;99036.44;;;11.62;72.30
77706;BME280;66874;45.274;5.880;2024-03-23T07:49:40;99058.00;;;11.73;72.39
77706;BME280;66874;45.274;5.880;2024-03-23T07:52:05;99054.41;;;11.77;71.86
77706;BME280;66874;45.274;5.880;2024-03-23T07:54:31;99051.69;;;11.82;71.52
77706;BME280;66874;45.274;5.880;2024-03-23T07:56:56;99063.78;;;11.87;71.04
77706;BME280;66874;45.274;5.880;2024-03-23T07:59:21;99043.59;;;11.92;69.89
77706;BME280;66874;45.274;5.880;2024-03-23T08:01:47;99046.88;;;12.01;70.24
77706;BME280;66874;45.274;5.880;2024-03-23T08:04:12;99054.31;;;12.17;69.63
77706;BME280;66874;45.274;5.880;2024-03-23T08:06:38;99043.41;;;12.34;68.71
77706;BME280;66874;45.274;5.880;2024-03-23T08:09:03;99062.06;;;12.55;67.93
77706;BME280;66874;45.274;5.880;2024-03-23T08:11:30;99061.81;;;12.64;68.23
77706;BME280;66874;45.274;5.880;2024-03-23T08:13:57;99058.94;;;12.73;68.21
77706;BME280;66874;45.274;5.880;2024-03-23T08:16:22;99061.38;;;12.79;68.18
77706;BME280;66874;45.274;5.880;2024-03-23T08:18:50;99060.38;;;12.85;68.11
77706;BME280;66874;45.274;5.880;2024-03-23T08:21:15;99059.22;;;12.93;68.02
77706;BME280;66874;45.274;5.880;2024-03-23T08:23:41;99058.00;;;13.07;67.65
77706;BME280;66874;45.274;5.880;2024-03-23T08:26:08;99065.50;;;13.19;67.23
77706;BME280;66874;45.274;5.880;2024-03-23T08:28:34;99064.31;;;13.31;66.06
77706;BME280;66874;45.274;5.880;2024-03-23T08:31:08;99080.59;;;13.42;66.16
77706;BME280;66874;45.274;5.880;2024-03-23T08:33:34;99070.72;;;13.50;66.03
77706;BME280;66874;45.274;5.880;2024-03-23T08:36:01;99070.31;;;13.62;63.71
77706;BME280;66874;45.274;5.880;2024-03-23T08:38:27;99086.63;;;13.74;63.76
77706;BME280;66874;45.274;5.880;2024-03-23T08:41:06;99092.06;;;13.67;65.26
77706;BME280;66874;45.274;5.880;2024-03-23T08:43:36;99096.44;;;13.68;66.14
77706;BME280;66874;45.274;5.880;2024-03-23T08:46:06;99096.31;;;13.72;65.01
77706;BME280;66874;45.274;5.880;2024-03-23T08:48:32;99091.72;;;13.78;65.43
77706;BME280;66874;45.274;5.880;2024-03-23T08:51:08;99096.81;;;13.84;65.92
77706;BME280;66874;45.274;5.880;2024-03-23T08:53:37;99113.59;;;13.80;66.38
77706;BME280;66874;45.274;5.880;2024-03-23T08:56:04;99126.81;;;13.77;66.85
77706;BME280;66874;45.274;5.880;2024-03-23T08:58:30;99112.06;;;13.73;66.28
77706;BME280;66874;45.274;5.880;2024-03-23T09:01:05;99107.03;;;13.65;64.41
77706;BME280;66874;45.274;5.880;2024-03-23T09:03:31;99109.00;;;13.59;63.59
77706;BME280;66874;45.274;5.880;2024-03-23T09:05:57;99097.09;;;13.47;62.81
77706;BME280;66874;45.274;5.880;2024-03-23T09:08:23;99104.25;;;13.42;62.56
77706;BME280;66874;45.274;5.880;2024-03-23T09:10:48;99116.25;;;13.51;62.27
77706;BME280;66874;45.274;5.880;2024-03-23T09:13:14;99109.69;;;13.64;61.35
77706;BME280;66874;45.274;5.880;2024-03-23T09:15:50;99134.94;;;13.70;60.73
77706;BME280;66874;45.274;5.880;2024-03-23T09:18:16;99129.47;;;13.77;60.01
77706;BME280;66874;45.274;5.880;2024-03-23T09:20:42;99138.81;;;13.86;60.27
77706;BME280;66874;45.274;5.880;2024-03-23T09:23:07;99135.63;;;14.03;60.38
77706;BME280;66874;45.274;5.880;2024-03-23T09:25:39;99112.59;;;14.11;59.19
77706;BME280;66874;45.274;5.880;2024-03-23T09:28:05;99118.91;;;14.05;58.99
77706;BME280;66874;45.274;5.880;2024-03-23T09:30:32;99113.09;;;13.96;58.69
77706;BME280;66874;45.274;5.880;2024-03-23T09:32:58;99120.88;;;13.99;58.50
77706;BME280;66874;45.274;5.880;2024-03-23T09:35:24;99123.69;;;14.21;58.57
77706;BME280;66874;45.274;5.880;2024-03-23T09:37:49;99128.53;;;14.59;58.18
77706;BME280;66874;45.274;5.880;2024-03-23T09:40:14;99126.59;;;15.14;57.15
77706;BME280;66874;45.274;5.880;2024-03-23T09:42:41;99128.31;;;15.39;55.67
77706;BME280;66874;45.274;5.880;2024-03-23T09:45:18;99143.19;;;15.17;54.86
77706;BME280;66874;45.274;5.880;2024-03-23T09:47:45;99150.91;;;14.98;54.99
77706;BME280;66874;45.274;5.880;2024-03-23T09:50:13;99155.91;;;14.80;54.84
77706;BME280;66874;45.274;5.880;2024-03-23T09:52:39;99158.16;;;14.91;55.02
77706;BME280;66874;45.274;5.880;2024-03-23T09:55:04;99154.28;;;15.01;54.85
77706;BME280;66874;45.274;5.880;2024-03-23T09:57:30;99156.06;;;15.01;54.61
77706;BME280;66874;45.274;5.880;2024-03-23T09:59:55;99158.03;;;14.94;53.89
77706;BME280;66874;45.274;5.880;2024-03-23T10:02:23;99162.38;;;15.20;53.06
77706;BME280;66874;45.274;5.880;2024-03-23T10:04:49;99156.91;;;15.26;52.72
77706;BME280;66874;45.274;5.880;2024-03-23T10:07:18;99152.50;;;15.27;53.32
77706;BME280;66874;45.274;5.880;2024-03-23T10:09:44;99158.66;;;15.26;53.54
77706;BME280;66874;45.274;5.880;2024-03-23T10:12:15;99170.56;;;15.37;53.68
77706;BME280;66874;45.274;5.880;2024-03-23T10:14:41;99160.84;;;15.14;52.98
77706;BME280;66874;45.274;5.880;2024-03-23T10:19:38;99165.47;;;14.58;53.53
77706;BME280;66874;45.274;5.880;2024-03-23T10:22:04;99168.34;;;14.49;54.38
77706;BME280;66874;45.274;5.880;2024-03-23T10:24:29;99177.31;;;14.16;55.69
77706;BME280;66874;45.274;5.880;2024-03-23T10:26:58;99182.16;;;14.29;55.22
77706;BME280;66874;45.274;5.880;2024-03-23T10:29:23;99197.66;;;14.11;55.25
77706;BME280;66874;45.274;5.880;2024-03-23T10:31:48;99191.53;;;14.11;54.83
77706;BME280;66874;45.274;5.880;2024-03-23T10:34:14;99187.50;;;13.99;55.08
77706;BME280;66874;45.274;5.880;2024-03-23T10:36:40;99198.97;;;13.67;55.61
77706;BME280;66874;45.274;5.880;2024-03-23T10:39:07;99198.06;;;13.38;56.53
77706;BME280;66874;45.274;5.880;2024-03-23T10:41:33;99200.47;;;13.15;56.80
77706;BME280;66874;45.274;5.880;2024-03-23T10:44:01;99210.25;;;13.08;56.68
77706;BME280;66874;45.274;5.880;2024-03-23T10:46:26;99200.09;;;12.94;56.94
77706;BME280;66874;45.274;5.880;2024-03-23T10:48:52;99203.69;;;12.92;56.34
77706;BME280;66874;45.274;5.880;2024-03-23T10:51:17;99197.59;;;12.91;56.41
77706;BME280;66874;45.274;5.880;2024-03-23T10:53:44;99204.28;;;13.02;56.20
77706;BME280;66874;45.274;5.880;2024-03-23T10:56:12;99212.88;;;13.08;55.94
77706;BME280;66874;45.274;5.880;2024-03-23T10:58:41;99201.53;;;13.08;56.10
77706;BME280;66874;45.274;5.880;2024-03-23T11:01:11;99197.00;;;13.13;55.54
77706;BME280;66874;45.274;5.880;2024-03-23T11:03:38;99194.22;;;13.19;55.15
77706;BME280;66874;45.274;5.880;2024-03-23T11:06:06;99194.16;;;13.20;55.30
77706;BME280;66874;45.274;5.880;2024-03-23T11:08:34;99186.31;;;13.19;54.25
77706;BME280;66874;45.274;5.880;2024-03-23T11:11:19;99182.72;;;13.22;53.68
77706;BME280;66874;45.274;5.880;2024-03-23T11:13:48;99180.91;;;13.25;53.57
77706;BME280;66874;45.274;5.880;2024-03-23T11:16:24;99191.44;;;13.25;52.16
77706;BME280;66874;45.274;5.880;2024-03-23T11:18:53;99180.22;;;13.18;51.48
77706;BME280;66874;45.274;5.880;2024-03-23T11:21:56;99174.78;;;13.85;50.72
77706;BME280;66874;45.274;5.880;2024-03-23T11:24:21;99180.84;;;14.15;48.23
77706;BME280;66874;45.274;5.880;2024-03-23T11:26:48;99190.31;;;14.49;48.72
77706;BME280;66874;45.274;5.880;2024-03-23T11:29:16;99172.41;;;14.85;47.84
77706;BME280;66874;45.274;5.880;2024-03-23T11:31:48;99161.16;;;15.05;46.76
77706;BME280;66874;45.274;5.880;2024-03-23T11:34:18;99168.78;;;15.13;45.28
77706;BME280;66874;45.274;5.880;2024-03-23T11:36:44;99170.78;;;15.06;44.23
77706;BME280;66874;45.274;5.880;2024-03-23T11:39:20;99172.53;;;15.31;45.60
77706;BME280;66874;45.274;5.880;2024-03-23T11:41:50;99164.25;;;15.65;44.72
77706;BME280;66874;45.274;5.880;2024-03-23T11:44:19;99157.84;;;15.72;43.62
77706;BME280;66874;45.274;5.880;2024-03-23T11:46:46;99149.63;;;15.80;43.11
77706;BME280;66874;45.274;5.880;2024-03-23T11:49:24;99132.50;;;15.90;43.22
77706;BME280;66874;45.274;5.880;2024-03-23T11:51:51;99128.78;;;15.96;42.53
77706;BME280;66874;45.274;5.880;2024-03-23T11:54:20;99127.03;;;15.95;41.76
77706;BME280;66874;45.274;5.880;2024-03-23T11:57:03;99125.88;;;16.02;42.50
77706;BME280;66874;45.274;5.880;2024-03-23T11:59:39;99127.00;;;15.96;40.85
77706;BME280;66874;45.274;5.880;2024-03-23T12:02:12;99120.66;;;16.22;41.73
77706;BME280;66874;45.274;5.880;2024-03-23T12:04:41;99112.28;;;16.33;41.28
77706;BME280;66874;45.274;5.880;2024-03-23T12:07:14;99110.91;;;16.45;41.27
77706;BME280;66874;45.274;5.880;2024-03-23T12:09:41;99116.53;;;16.57;40.99
77706;BME280;66874;45.274;5.880;2024-03-23T12:12:17;99108.50;;;16.60;39.49
77706;BME280;66874;45.274;5.880;2024-03-23T12:15:00;99105.78;;;16.82;40.44
77706;BME280;66874;45.274;5.880;2024-03-23T12:17:26;99095.34;;;17.00;38.82
77706;BME280;66874;45.274;5.880;2024-03-23T12:19:51;99093.19;;;17.08;38.46
77706;BME280;66874;45.274;5.880;2024-03-23T12:22:20;99077.19;;;16.92;40.20
77706;BME280;66874;45.274;5.880;2024-03-23T12:24:46;99069.56;;;17.24;39.23
77706;BME280;66874;45.274;5.880;2024-03-23T12:27:11;99066.00;;;17.44;39.09
77706;BME280;66874;45.274;5.880;2024-03-23T12:29:36;99073.84;;;17.83;36.86
77706;BME280;66874;45.274;5.880;2024-03-23T12:32:04;99074.91;;;17.60;37.46
77706;BME280;66874;45.274;5.880;2024-03-23T12:34:30;99070.88;;;17.53;37.71
77706;BME280;66874;45.274;5.880;2024-03-23T12:36:56;99079.50;;;17.56;38.78
77706;BME280;66874;45.274;5.880;2024-03-23T12:39:21;99077.38;;;17.46;37.74
77706;BME280;66874;45.274;5.880;2024-03-23T12:41:47;99081.22;;;17.57;38.64
77706;BME280;66874;45.274;5.880;2024-03-23T12:44:13;99094.09;;;17.84;38.04
77706;BME280;66874;45.274;5.880;2024-03-23T12:46:39;99077.00;;;17.91;37.26
77706;BME280;66874;45.274;5.880;2024-03-23T12:49:05;99059.22;;;17.93;36.98
77706;BME280;66874;45.274;5.880;2024-03-23T12:51:31;99075.06;;;18.12;36.60
77706;BME280;66874;45.274;5.880;2024-03-23T12:53:57;99045.44;;;17.87;36.59
77706;BME280;66874;45.274;5.880;2024-03-23T12:56:22;99073.72;;;18.03;36.65
77706;BME280;66874;45.274;5.880;2024-03-23T12:58:48;99054.34;;;18.03;35.14
77706;BME280;66874;45.274;5.880;2024-03-23T13:01:16;99049.34;;;17.97;36.05
77706;BME280;66874;45.274;5.880;2024-03-23T13:03:42;99040.66;;;18.12;35.03
77706;BME280;66874;45.274;5.880;2024-03-23T13:06:09;99038.75;;;17.97;35.89
77706;BME280;66874;45.274;5.880;2024-03-23T13:08:35;99036.13;;;18.14;36.02
77706;BME280;66874;45.274;5.880;2024-03-23T13:11:00;99039.97;;;18.26;33.69
77706;BME280;66874;45.274;5.880;2024-03-23T13:13:25;99038.94;;;18.11;33.20
77706;BME280;66874;45.274;5.880;2024-03-23T13:15:51;99034.72;;;18.07;33.95
77706;BME280;66874;45.274;5.880;2024-03-23T13:18:16;99037.75;;;18.17;32.52
77706;BME280;66874;45.274;5.880;2024-03-23T13:20:42;99026.63;;;18.27;31.89
77706;BME280;66874;45.274;5.880;2024-03-23T13:23:07;99020.94;;;18.18;33.22
77706;BME280;66874;45.274;5.880;2024-03-23T13:25:33;99004.50;;;18.28;31.23
77706;BME280;66874;45.274;5.880;2024-03-23T13:27:59;99008.69;;;18.33;29.80
77706;BME280;66874;45.274;5.880;2024-03-23T13:30:24;99005.34;;;18.46;30.44
77706;BME280;66874;45.274;5.880;2024-03-23T13:32:50;99001.25;;;18.74;30.63
77706;BME280;66874;45.274;5.880;2024-03-23T13:35:15;98994.94;;;18.76;31.19
77706;BME280;66874;45.274;5.880;2024-03-23T13:37:41;98997.94;;;18.86;30.96
77706;BME280;66874;45.274;5.880;2024-03-23T13:40:07;99000.13;;;18.95;29.55
77706;BME280;66874;45.274;5.880;2024-03-23T13:42:33;99003.75;;;18.77;30.57
77706;BME280;66874;45.274;5.880;2024-03-23T13:44:58;98984.72;;;18.69;30.16
77706;BME280;66874;45.274;5.880;2024-03-23T13:47:23;98977.25;;;18.77;30.61
77706;BME280;66874;45.274;5.880;2024-03-23T13:49:49;98980.84;;;18.76;30.35
77706;BME280;66874;45.274;5.880;2024-03-23T13:52:14;98974.94;;;18.87;29.50
77706;BME280;66874;45.274;5.880;2024-03-23T13:54:39;98984.13;;;18.97;29.28